Time;durP1;ratioP1;P1;durP2;ratioP2;P2;SDS_P1;SDS_P2;PMS_P1;PMS_P2;Temp;Humidity;BMP_temperature;BMP_pressure;BME280_temperature;BME280_humidity;BME280_pressure;Samples;Min_cycle;Max_cycle;Signal;HPM_P1;HPM_P2
2023/06/06 00:02:10;;;;;;;16.58;8.10;;;12.70;99.90;;;;;;4953553;29;20119;-73
2023/06/06 00:04:36;;;;;;;13.55;7.85;;;12.70;99.90;;;;;;4952565;28;20086;-73
2023/06/06 00:07:08;;;;;;;15.50;7.60;;;12.60;99.90;;;;;;4951976;28;20094;-73
2023/06/06 00:09:34;;;;;;;15.13;7.90;;;12.60;99.90;;;;;;4944096;29;20028;-72
2023/06/06 00:12:00;;;;;;;14.73;8.07;;;12.60;99.90;;;;;;4950527;29;20031;-73
2023/06/06 00:14:31;;;;;;;14.68;8.35;;;12.60;99.90;;;;;;4947760;29;20032;-73
2023/06/06 00:16:58;;;;;;;19.48;8.30;;;12.60;99.90;;;;;;4949855;28;20035;-73
2023/06/06 00:19:24;;;;;;;13.75;7.68;;;12.50;99.90;;;;;;4946672;29;20039;-73
2023/06/06 00:21:50;;;;;;;19.50;8.70;;;12.50;99.90;;;;;;4950875;28;20034;-73
2023/06/06 00:24:17;;;;;;;15.05;8.75;;;12.50;99.90;;;;;;4944526;29;20523;-73
2023/06/06 00:26:42;;;;;;;22.35;8.88;;;12.40;99.90;;;;;;4939854;29;20415;-73
2023/06/06 00:29:08;;;;;;;14.52;8.07;;;12.40;99.90;;;;;;4950680;29;20030;-72
2023/06/06 00:31:33;;;;;;;18.02;8.50;;;12.40;99.90;;;;;;4949538;29;20066;-73
2023/06/06 00:33:59;;;;;;;14.40;7.93;;;12.40;99.90;;;;;;4942544;29;20047;-73
2023/06/06 00:36:25;;;;;;;16.15;8.38;;;12.30;99.90;;;;;;4953786;29;20098;-73
2023/06/06 00:38:50;;;;;;;14.77;8.15;;;12.30;99.90;;;;;;4953181;29;20117;-73
2023/06/06 00:41:16;;;;;;;19.00;8.43;;;12.30;99.90;;;;;;4953845;28;20058;-73
2023/06/06 00:43:44;;;;;;;19.88;8.77;;;12.20;99.90;;;;;;4946216;29;20038;-73
2023/06/06 00:46:11;;;;;;;15.70;8.90;;;12.30;99.90;;;;;;4942999;28;20047;-72
2023/06/06 00:48:37;;;;;;;16.50;8.40;;;12.20;99.90;;;;;;4949865;29;20032;-73
2023/06/06 00:51:03;;;;;;;15.63;8.02;;;12.20;99.90;;;;;;4939404;29;20028;-73
2023/06/06 00:53:29;;;;;;;17.27;8.68;;;12.20;99.90;;;;;;4934842;29;20083;-72
2023/06/06 00:55:54;;;;;;;16.58;8.15;;;12.10;99.90;;;;;;4953801;29;20019;-73
2023/06/06 00:58:20;;;;;;;17.02;8.43;;;12.10;99.90;;;;;;4953297;29;20411;-72
2023/06/06 01:00:47;;;;;;;15.10;8.07;;;12.20;99.90;;;;;;4949773;28;20035;-72
2023/06/06 01:03:15;;;;;;;21.05;8.82;;;12.10;99.90;;;;;;4953592;28;20019;-73
2023/06/06 01:05:40;;;;;;;15.85;8.65;;;12.20;99.90;;;;;;4947960;28;20082;-72
2023/06/06 01:08:07;;;;;;;16.30;8.15;;;12.10;99.90;;;;;;4945356;29;20059;-72
2023/06/06 01:10:39;;;;;;;14.13;8.23;;;12.10;99.90;;;;;;4951280;28;20395;-72
2023/06/06 01:13:23;;;;;;;15.05;7.78;;;12.10;99.90;;;;;;4945219;28;20488;-73
2023/06/06 01:15:57;;;;;;;13.52;8.05;;;12.10;99.90;;;;;;4952403;29;20030;-73
2023/06/06 01:18:23;;;;;;;14.65;8.65;;;12.10;99.90;;;;;;4942931;28;20031;-72
2023/06/06 01:20:49;;;;;;;18.02;8.52;;;12.10;99.90;;;;;;4952821;28;20031;-72
2023/06/06 01:23:16;;;;;;;13.00;7.80;;;12.10;99.90;;;;;;4951576;28;20395;-72
2023/06/06 01:25:46;;;;;;;17.42;8.15;;;12.00;99.90;;;;;;4942519;29;20423;-72
2023/06/06 01:28:15;;;;;;;16.13;8.02;;;12.00;99.90;;;;;;4951821;28;20358;-73
2023/06/06 01:30:43;;;;;;;14.25;8.10;;;12.00;99.90;;;;;;4945238;29;20471;-74
2023/06/06 01:33:08;;;;;;;16.13;8.18;;;12.00;99.90;;;;;;4943729;28;20099;-73
2023/06/06 01:35:52;;;;;;;12.57;7.50;;;12.00;99.90;;;;;;4951435;29;20024;-72
2023/06/06 01:38:30;;;;;;;15.60;7.95;;;12.00;99.90;;;;;;4955893;29;20094;-73
2023/06/06 01:40:58;;;;;;;17.20;8.73;;;12.00;99.90;;;;;;4949027;29;20062;-72
2023/06/06 01:43:26;;;;;;;18.00;8.82;;;12.00;99.90;;;;;;4955910;29;20053;-73
2023/06/06 01:45:53;;;;;;;18.20;8.02;;;12.00;99.90;;;;;;4946441;28;20027;-73
2023/06/06 01:48:19;;;;;;;14.25;7.65;;;11.90;99.90;;;;;;4950495;29;20059;-73
2023/06/06 01:50:45;;;;;;;16.30;8.27;;;11.90;99.90;;;;;;4945173;29;20023;-73
2023/06/06 01:53:11;;;;;;;18.40;8.65;;;11.90;99.90;;;;;;4948725;28;20023;-73
2023/06/06 01:55:38;;;;;;;13.00;7.43;;;11.90;99.90;;;;;;4949820;29;20054;-72
2023/06/06 01:58:05;;;;;;;19.77;9.05;;;11.90;99.90;;;;;;4954480;29;20019;-72
2023/06/06 02:00:30;;;;;;;15.75;7.78;;;11.90;99.90;;;;;;4954070;29;20046;-72
2023/06/06 02:02:56;;;;;;;16.38;8.52;;;11.80;99.90;;;;;;4949638;28;20023;-72
2023/06/06 02:05:22;;;;;;;16.63;8.10;;;11.80;99.90;;;;;;4947445;29;20420;-72
2023/06/06 02:07:49;;;;;;;22.08;9.10;;;11.80;99.90;;;;;;4954544;29;20023;-73
2023/06/06 02:10:15;;;;;;;17.88;7.90;;;11.90;99.90;;;;;;4952007;28;20074;-72
2023/06/06 02:12:42;;;;;;;15.98;8.25;;;11.90;99.90;;;;;;4948121;29;20491;-72
2023/06/06 02:15:09;;;;;;;15.68;7.97;;;11.80;99.90;;;;;;4946095;28;20046;-72
2023/06/06 02:17:35;;;;;;;17.10;8.93;;;11.90;99.90;;;;;;4953871;28;20038;-73
2023/06/06 02:20:01;;;;;;;15.75;7.82;;;11.80;99.90;;;;;;4954385;28;20431;-73
2023/06/06 02:22:26;;;;;;;15.00;8.30;;;11.80;99.90;;;;;;4950869;28;20495;-74
2023/06/06 02:24:55;;;;;;;14.85;8.10;;;11.80;99.90;;;;;;4955141;29;20390;-73
2023/06/06 02:27:21;;;;;;;15.80;7.93;;;11.80;99.90;;;;;;4955744;29;20426;-72
2023/06/06 02:29:47;;;;;;;19.17;8.85;;;11.80;99.90;;;;;;4953304;29;20168;-72
2023/06/06 02:32:12;;;;;;;16.65;8.05;;;11.80;99.90;;;;;;4954641;28;20027;-72
2023/06/06 02:34:38;;;;;;;15.02;8.15;;;11.80;99.90;;;;;;4954746;28;20032;-73
2023/06/06 02:37:07;;;;;;;17.33;8.15;;;11.80;99.90;;;;;;4951839;29;20091;-73
2023/06/06 02:39:34;;;;;;;16.90;8.40;;;11.80;99.90;;;;;;4956466;28;20086;-73
2023/06/06 02:41:59;;;;;;;17.13;8.60;;;11.70;99.90;;;;;;4956085;28;20409;-73
2023/06/06 02:44:26;;;;;;;16.83;8.52;;;11.70;99.90;;;;;;4955445;28;20119;-72
2023/06/06 02:46:52;;;;;;;16.90;8.15;;;11.70;99.90;;;;;;4956111;29;20037;-73
2023/06/06 02:49:18;;;;;;;17.63;8.75;;;11.70;99.90;;;;;;4955630;29;20455;-73
2023/06/06 02:51:43;;;;;;;15.63;8.18;;;11.70;99.90;;;;;;4956484;28;20471;-72
2023/06/06 02:54:09;;;;;;;19.58;8.57;;;11.80;99.90;;;;;;4952731;28;20020;-72
2023/06/06 02:56:35;;;;;;;15.90;8.85;;;11.80;99.90;;;;;;4954806;28;20126;-72
2023/06/06 02:59:00;;;;;;;16.27;8.75;;;11.80;99.90;;;;;;4946381;28;20039;-72
2023/06/06 03:01:26;;;;;;;18.23;8.05;;;11.80;99.90;;;;;;4943221;29;20058;-72
2023/06/06 03:03:52;;;;;;;21.13;8.13;;;11.80;99.90;;;;;;4942353;28;20032;-72
2023/06/06 03:06:20;;;;;;;16.85;8.15;;;11.80;99.90;;;;;;4941787;29;20106;-72
2023/06/06 03:08:46;;;;;;;18.05;8.38;;;11.80;99.90;;;;;;4950938;28;20106;-73
2023/06/06 03:11:12;;;;;;;19.55;9.27;;;11.80;99.90;;;;;;4953259;28;20145;-73
2023/06/06 03:13:38;;;;;;;17.92;8.27;;;11.80;99.90;;;;;;4948848;29;20266;-72
2023/06/06 03:16:04;;;;;;;16.80;8.10;;;11.80;99.90;;;;;;4952407;28;20015;-72
2023/06/06 03:18:30;;;;;;;18.33;8.35;;;11.80;99.90;;;;;;4954413;28;20019;-72
2023/06/06 03:20:55;;;;;;;20.10;8.35;;;11.70;99.90;;;;;;4952234;28;20035;-72
2023/06/06 03:23:22;;;;;;;17.95;8.55;;;11.70;99.90;;;;;;4954444;28;20034;-72
2023/06/06 03:25:51;;;;;;;18.45;8.57;;;11.70;99.90;;;;;;4947092;29;20029;-72
2023/06/06 03:28:18;;;;;;;18.77;8.57;;;11.70;99.90;;;;;;4942883;29;20411;-72
2023/06/06 03:30:45;;;;;;;17.17;8.27;;;11.70;99.90;;;;;;4953609;28;20045;-72
2023/06/06 03:33:11;;;;;;;20.65;9.05;;;11.60;99.90;;;;;;4953292;28;20386;-73
2023/06/06 03:35:37;;;;;;;23.35;8.15;;;11.60;99.90;;;;;;4947177;28;20025;-73
2023/06/06 03:38:04;;;;;;;17.15;8.23;;;11.70;99.90;;;;;;4954692;29;20039;-72
2023/06/06 03:40:30;;;;;;;19.83;7.53;;;11.70;99.90;;;;;;4944257;28;20406;-72
2023/06/06 03:42:56;;;;;;;16.38;8.30;;;11.70;99.90;;;;;;4953031;29;20118;-73
2023/06/06 03:45:21;;;;;;;14.45;7.50;;;11.70;99.90;;;;;;4953988;28;20091;-73
2023/06/06 03:47:51;;;;;;;15.93;7.72;;;11.80;99.90;;;;;;4952097;29;20115;-72
2023/06/06 03:50:18;;;;;;;14.85;7.68;;;11.80;99.90;;;;;;4950611;29;20059;-72
2023/06/06 03:52:43;;;;;;;18.27;7.47;;;11.80;99.90;;;;;;4946135;28;20023;-72
2023/06/06 03:55:10;;;;;;;15.02;7.55;;;11.80;99.90;;;;;;4954499;29;20031;-72
2023/06/06 03:57:37;;;;;;;21.10;7.85;;;11.80;99.90;;;;;;4952688;28;20042;-72
2023/06/06 04:00:10;;;;;;;20.08;7.68;;;11.90;99.90;;;;;;4951110;28;20042;-72
2023/06/06 04:02:40;;;;;;;15.88;7.20;;;11.90;99.90;;;;;;4952340;28;20102;-72
2023/06/06 04:05:06;;;;;;;19.65;8.43;;;11.90;99.90;;;;;;4941312;28;20035;-71
2023/06/06 04:07:32;;;;;;;16.75;7.93;;;11.90;99.90;;;;;;4951956;29;20103;-71
2023/06/06 04:09:58;;;;;;;16.52;8.20;;;12.00;99.90;;;;;;4949857;29;20034;-72
2023/06/06 04:12:24;;;;;;;19.02;8.00;;;12.00;99.90;;;;;;4948684;29;20015;-72
2023/06/06 04:14:50;;;;;;;20.25;7.82;;;12.00;99.90;;;;;;4954032;28;20023;-72
2023/06/06 04:17:17;;;;;;;14.48;7.97;;;12.00;99.90;;;;;;4946714;29;20038;-72
2023/06/06 04:19:42;;;;;;;19.95;7.78;;;12.10;99.90;;;;;;4950637;29;20084;-72
2023/06/06 04:22:09;;;;;;;15.65;8.18;;;12.10;99.90;;;;;;4942293;29;20106;-73
2023/06/06 04:24:35;;;;;;;17.20;7.57;;;12.10;99.90;;;;;;4951913;29;20043;-73
2023/06/06 04:27:03;;;;;;;22.27;9.10;;;12.10;99.90;;;;;;4943743;29;20027;-72
2023/06/06 04:29:34;;;;;;;17.60;8.43;;;12.10;99.90;;;;;;4952558;28;20039;-72
2023/06/06 04:32:07;;;;;;;18.38;8.85;;;12.20;99.90;;;;;;4953819;29;20027;-72
2023/06/06 04:34:35;;;;;;;17.05;7.70;;;12.20;99.90;;;;;;4947249;28;20027;-72
2023/06/06 04:37:04;;;;;;;19.50;7.93;;;12.20;99.90;;;;;;4954475;28;20404;-72
2023/06/06 04:39:32;;;;;;;14.95;7.90;;;12.20;99.90;;;;;;4943593;28;20032;-72
2023/06/06 04:41:58;;;;;;;20.17;7.85;;;12.30;99.90;;;;;;4947464;29;20027;-72
2023/06/06 04:44:25;;;;;;;16.08;7.90;;;12.30;99.90;;;;;;4953331;28;20106;-72
2023/06/06 04:47:01;;;;;;;15.90;7.65;;;12.40;99.90;;;;;;4949798;29;20031;-72
2023/06/06 04:49:35;;;;;;;19.25;7.55;;;12.40;99.90;;;;;;4951823;28;20023;-72
2023/06/06 04:52:03;;;;;;;22.37;8.17;;;12.40;99.90;;;;;;4953617;29;20054;-73
2023/06/06 04:54:30;;;;;;;20.05;8.35;;;12.40;99.90;;;;;;4952814;28;20050;-73
2023/06/06 04:56:56;;;;;;;15.40;7.30;;;12.40;99.90;;;;;;4947090;28;20057;-73
2023/06/06 04:59:22;;;;;;;20.38;7.93;;;12.50;99.90;;;;;;4939673;29;20038;-73
2023/06/06 05:01:48;;;;;;;16.80;8.00;;;12.40;99.90;;;;;;4951592;29;20479;-71
2023/06/06 05:04:15;;;;;;;16.92;7.32;;;12.40;99.90;;;;;;4946438;29;20020;-73
2023/06/06 05:06:41;;;;;;;18.60;7.57;;;12.50;99.90;;;;;;4953424;28;20019;-72
2023/06/06 05:09:07;;;;;;;19.77;7.47;;;12.60;99.90;;;;;;4949057;28;20370;-72
2023/06/06 05:11:35;;;;;;;18.75;7.50;;;12.60;99.90;;;;;;4957038;28;20556;-73
2023/06/06 05:14:02;;;;;;;16.88;7.57;;;12.60;99.90;;;;;;4953327;29;20020;-73
2023/06/06 05:16:27;;;;;;;20.15;8.00;;;12.60;99.90;;;;;;4952818;29;20083;-73
2023/06/06 05:18:53;;;;;;;19.55;7.60;;;12.60;99.90;;;;;;4952248;29;20419;-73
2023/06/06 05:21:19;;;;;;;19.60;7.47;;;12.60;99.90;;;;;;4955024;28;20030;-72
2023/06/06 05:23:45;;;;;;;19.13;7.32;;;12.70;99.90;;;;;;4956418;28;20027;-72
2023/06/06 05:26:11;;;;;;;18.50;7.47;;;12.70;99.90;;;;;;4948209;29;20028;-72
2023/06/06 05:28:38;;;;;;;18.42;7.40;;;12.70;99.90;;;;;;4945762;29;20022;-72
2023/06/06 05:31:07;;;;;;;17.90;7.80;;;12.80;99.90;;;;;;4942148;29;20459;-72
2023/06/06 05:33:33;;;;;;;15.23;7.50;;;12.80;99.90;;;;;;4955419;28;20069;-72
2023/06/06 05:36:00;;;;;;;16.75;7.63;;;12.80;99.90;;;;;;4952367;28;20038;-72
2023/06/06 05:38:26;;;;;;;16.38;7.80;;;12.90;99.90;;;;;;4951717;29;20105;-72
2023/06/06 05:40:51;;;;;;;16.73;8.07;;;12.90;99.90;;;;;;4951126;28;20126;-73
2023/06/06 05:43:17;;;;;;;19.77;7.82;;;13.00;99.90;;;;;;4951013;29;20481;-73
2023/06/06 05:45:43;;;;;;;19.92;8.48;;;13.00;99.90;;;;;;4955545;28;20624;-73
2023/06/06 05:48:08;;;;;;;18.52;8.57;;;13.10;99.90;;;;;;4946457;28;20031;-73
2023/06/06 05:50:34;;;;;;;17.40;8.38;;;13.10;99.90;;;;;;4949858;28;20569;-72
2023/06/06 05:53:02;;;;;;;19.00;7.88;;;13.10;99.90;;;;;;4946482;29;20031;-72
2023/06/06 05:55:30;;;;;;;17.15;8.05;;;13.20;99.90;;;;;;4953561;29;20672;-73
2023/06/06 05:57:56;;;;;;;22.95;8.40;;;13.30;99.90;;;;;;4955164;28;20058;-72
2023/06/06 06:00:24;;;;;;;18.27;8.30;;;13.30;99.90;;;;;;4954264;28;20067;-72
2023/06/06 06:02:51;;;;;;;18.98;8.07;;;13.40;99.90;;;;;;4952427;29;20043;-72
2023/06/06 06:05:18;;;;;;;18.30;7.78;;;13.40;99.90;;;;;;4952756;28;20034;-72
2023/06/06 06:07:44;;;;;;;15.85;7.85;;;13.50;99.90;;;;;;4948658;29;20027;-72
2023/06/06 06:10:10;;;;;;;14.15;7.70;;;13.50;99.90;;;;;;4940789;28;20436;-73
2023/06/06 06:12:36;;;;;;;20.98;8.00;;;13.60;99.90;;;;;;4951205;29;20070;-73
2023/06/06 06:15:02;;;;;;;19.80;8.65;;;13.60;99.90;;;;;;4954739;28;20474;-73
2023/06/06 06:17:27;;;;;;;18.52;8.20;;;13.60;99.90;;;;;;4949284;29;20031;-73
2023/06/06 06:19:53;;;;;;;17.25;7.70;;;13.70;99.90;;;;;;4956872;28;20031;-72
2023/06/06 06:22:19;;;;;;;19.38;7.93;;;13.70;99.90;;;;;;4956770;29;20089;-72
2023/06/06 06:24:44;;;;;;;16.52;7.75;;;13.80;99.90;;;;;;4954748;28;20015;-71
2023/06/06 06:27:10;;;;;;;21.38;7.78;;;13.90;99.90;;;;;;4957001;29;20504;-72
2023/06/06 06:29:36;;;;;;;20.92;8.93;;;13.90;99.90;;;;;;4954351;29;20024;-72
2023/06/06 06:32:01;;;;;;;17.55;7.50;;;14.00;99.90;;;;;;4958122;28;20110;-72
2023/06/06 06:34:27;;;;;;;19.08;7.60;;;14.10;99.90;;;;;;4957447;28;20023;-72
2023/06/06 06:36:52;;;;;;;14.30;7.80;;;14.10;99.90;;;;;;4950026;28;20031;-73
2023/06/06 06:39:19;;;;;;;17.33;8.55;;;14.10;99.90;;;;;;4949888;29;20044;-72
2023/06/06 06:41:47;;;;;;;17.95;7.80;;;14.20;99.90;;;;;;4945460;29;20053;-72
2023/06/06 06:44:13;;;;;;;16.88;7.60;;;14.30;99.90;;;;;;4953899;29;20015;-72
2023/06/06 06:46:39;;;;;;;14.38;7.40;;;14.30;99.90;;;;;;4955243;28;20033;-73
2023/06/06 06:49:23;;;;;;;16.77;8.13;;;14.40;99.90;;;;;;4946861;28;20023;-72
2023/06/06 06:51:51;;;;;;;19.40;8.05;;;14.50;99.90;;;;;;4956688;28;20027;-71
2023/06/06 06:54:21;;;;;;;20.90;8.40;;;14.60;99.90;;;;;;4954262;29;20039;-72
2023/06/06 06:56:48;;;;;;;19.98;7.88;;;14.60;99.90;;;;;;4944949;28;20027;-72
2023/06/06 06:59:14;;;;;;;21.42;8.73;;;14.70;99.90;;;;;;4954685;29;20086;-72
2023/06/06 07:01:40;;;;;;;17.10;8.13;;;14.70;99.90;;;;;;4955936;28;20028;-72
2023/06/06 07:04:07;;;;;;;19.35;7.75;;;14.80;99.90;;;;;;4950901;28;20031;-72
2023/06/06 07:06:34;;;;;;;19.55;8.20;;;14.90;99.90;;;;;;4956690;28;20019;-72
2023/06/06 07:09:00;;;;;;;20.05;8.90;;;15.00;99.90;;;;;;4951532;28;20035;-72
2023/06/06 07:11:27;;;;;;;19.75;7.93;;;15.20;99.90;;;;;;4956684;28;20019;-73
2023/06/06 07:13:52;;;;;;;20.30;7.97;;;15.30;99.90;;;;;;4950159;29;20124;-72
2023/06/06 07:16:20;;;;;;;21.98;7.90;;;15.40;99.90;;;;;;4950956;29;20110;-73
2023/06/06 07:18:47;;;;;;;18.80;7.60;;;15.40;99.90;;;;;;4954796;29;20478;-73
2023/06/06 07:21:13;;;;;;;20.02;8.23;;;15.50;99.90;;;;;;4954044;29;20485;-73
2023/06/06 07:23:39;;;;;;;22.90;8.10;;;15.60;99.90;;;;;;4944668;29;20019;-73
2023/06/06 07:26:06;;;;;;;18.83;8.50;;;15.70;99.90;;;;;;4952819;28;20458;-73
2023/06/06 07:28:32;;;;;;;26.40;8.25;;;15.70;99.90;;;;;;4955264;28;20085;-72
2023/06/06 07:30:59;;;;;;;24.70;8.82;;;15.80;99.90;;;;;;4947059;28;20043;-72
2023/06/06 07:33:25;;;;;;;20.73;7.75;;;16.00;99.90;;;;;;4941786;28;20031;-71
2023/06/06 07:35:51;;;;;;;17.95;8.07;;;16.10;99.90;;;;;;4947209;29;20087;-72
2023/06/06 07:38:16;;;;;;;15.60;7.60;;;16.20;99.90;;;;;;4953847;29;20074;-72
2023/06/06 07:40:42;;;;;;;18.27;7.70;;;16.20;99.90;;;;;;4946323;29;20595;-72
2023/06/06 07:43:07;;;;;;;15.40;8.00;;;16.30;99.90;;;;;;4955147;29;20050;-73
2023/06/06 07:45:33;;;;;;;18.27;7.82;;;16.40;99.90;;;;;;4953255;28;20003;-73
2023/06/06 07:47:59;;;;;;;13.75;7.53;;;16.50;99.90;;;;;;4947148;28;20464;-73
2023/06/06 07:50:25;;;;;;;17.77;8.10;;;16.70;99.90;;;;;;4949190;29;20453;-72
2023/06/06 07:52:51;;;;;;;16.85;8.00;;;16.70;99.90;;;;;;4954386;29;20030;-73
2023/06/06 07:55:17;;;;;;;19.52;8.02;;;16.80;99.90;;;;;;4954757;28;20359;-73
2023/06/06 07:57:45;;;;;;;17.73;8.20;;;16.90;99.90;;;;;;4946321;28;20030;-73
2023/06/06 08:00:12;;;;;;;19.63;8.25;;;16.90;99.90;;;;;;4955983;28;20710;-72
2023/06/06 08:02:41;;;;;;;17.77;8.20;;;17.00;99.90;;;;;;4953851;29;20114;-72
2023/06/06 08:05:07;;;;;;;20.13;8.18;;;17.10;99.90;;;;;;4955172;28;20027;-73
2023/06/06 08:07:36;;;;;;;20.70;8.57;;;17.10;99.90;;;;;;4955932;29;20055;-73
2023/06/06 08:10:02;;;;;;;28.27;9.18;;;17.10;99.90;;;;;;4950390;28;20038;-73
2023/06/06 08:12:28;;;;;;;17.92;8.10;;;17.30;99.90;;;;;;4949172;28;20031;-73
2023/06/06 08:14:54;;;;;;;16.25;7.90;;;17.40;99.90;;;;;;4951067;29;20089;-73
2023/06/06 08:17:19;;;;;;;15.75;7.82;;;17.50;99.90;;;;;;4950848;29;20498;-74
2023/06/06 08:19:45;;;;;;;17.05;8.52;;;17.70;99.90;;;;;;4956130;29;20031;-73
2023/06/06 08:22:11;;;;;;;20.20;7.53;;;17.80;99.90;;;;;;4952251;28;20023;-73
2023/06/06 08:24:37;;;;;;;13.85;7.40;;;18.00;99.90;;;;;;4956228;28;20474;-73
2023/06/06 08:27:03;;;;;;;14.95;7.38;;;18.10;99.90;;;;;;4954736;28;20031;-73
2023/06/06 08:29:29;;;;;;;16.23;7.55;;;18.30;99.90;;;;;;4948126;28;20012;-73
2023/06/06 08:31:55;;;;;;;16.45;7.47;;;18.40;99.90;;;;;;4954399;28;20027;-72
2023/06/06 08:34:22;;;;;;;37.58;9.73;;;18.50;99.90;;;;;;4941094;29;20031;-72
2023/06/06 08:36:48;;;;;;;24.85;7.78;;;18.60;99.90;;;;;;4953766;28;20027;-72
2023/06/06 08:39:15;;;;;;;429.98;43.10;;;18.60;99.90;;;;;;4941667;28;20043;-72
2023/06/06 08:41:52;;;;;;;27.73;8.50;;;18.70;99.90;;;;;;4952633;28;20070;-72
2023/06/06 08:44:20;;;;;;;93.15;11.65;;;18.80;99.90;;;;;;4957765;28;20491;-72
2023/06/06 08:46:49;;;;;;;22.25;8.70;;;19.00;99.90;;;;;;4956522;29;20538;-72
2023/06/06 08:49:19;;;;;;;25.58;9.15;;;19.10;99.90;;;;;;4946509;28;20035;-72
2023/06/06 08:51:47;;;;;;;23.35;7.90;;;19.20;99.90;;;;;;4952726;28;20028;-72
2023/06/06 08:54:13;;;;;;;16.48;7.90;;;19.40;99.90;;;;;;4949574;29;20023;-72
2023/06/06 08:56:42;;;;;;;20.58;8.50;;;19.50;99.90;;;;;;4953844;29;20059;-72
2023/06/06 08:59:10;;;;;;;20.92;9.18;;;19.70;99.90;;;;;;4958317;28;20038;-71
2023/06/06 09:01:37;;;;;;;19.55;8.25;;;19.70;99.90;;;;;;4958115;28;20015;-72
2023/06/06 09:04:04;;;;;;;15.13;8.50;;;19.70;99.90;;;;;;4953440;28;20106;-72
2023/06/06 09:06:34;;;;;;;17.17;8.23;;;19.70;99.90;;;;;;4957914;29;20058;-73
2023/06/06 09:09:01;;;;;;;20.20;8.23;;;19.70;99.90;;;;;;4949752;28;20024;-72
2023/06/06 09:11:27;;;;;;;15.25;7.53;;;19.70;99.90;;;;;;4958668;28;20039;-72
2023/06/06 09:13:53;;;;;;;16.48;8.50;;;20.00;99.90;;;;;;4958542;29;20072;-72
2023/06/06 09:16:18;;;;;;;12.30;7.43;;;20.10;99.90;;;;;;4956512;28;20503;-72
2023/06/06 09:18:48;;;;;;;16.88;7.93;;;20.20;99.90;;;;;;4958310;28;20023;-72
2023/06/06 09:21:13;;;;;;;16.17;7.35;;;20.30;99.90;;;;;;4958422;28;20089;-72
2023/06/06 09:23:39;;;;;;;24.05;9.00;;;20.30;99.90;;;;;;4955436;28;20087;-72
2023/06/06 09:26:27;;;;;;;24.52;9.77;;;20.30;99.90;;;;;;4945694;28;20024;-72
2023/06/06 09:28:55;;;;;;;18.52;8.35;;;20.40;99.90;;;;;;4947765;28;20035;-74
2023/06/06 09:31:29;;;;;;;21.33;8.15;;;20.50;99.90;;;;;;4951556;29;20019;-74
2023/06/06 09:33:57;;;;;;;29.50;9.90;;;20.60;99.90;;;;;;4948493;29;20035;-74
2023/06/06 09:36:29;;;;;;;17.30;8.35;;;20.70;99.90;;;;;;4957416;28;20482;-74
2023/06/06 09:39:02;;;;;;;29.75;8.63;;;20.80;99.90;;;;;;4957882;28;20043;-75
2023/06/06 09:41:27;;;;;;;19.08;8.35;;;20.90;99.90;;;;;;4955754;28;20101;-74
2023/06/06 09:43:55;;;;;;;21.13;8.18;;;21.00;99.90;;;;;;4953643;29;20640;-75
2023/06/06 09:46:20;;;;;;;19.63;8.85;;;20.90;99.90;;;;;;4950961;29;20028;-74
2023/06/06 09:48:56;;;;;;;27.30;9.10;;;20.90;99.90;;;;;;4952895;29;20138;-74
2023/06/06 09:51:21;;;;;;;26.25;9.00;;;20.90;99.90;;;;;;4956334;28;20019;-74
2023/06/06 09:53:51;;;;;;;24.60;8.75;;;21.10;99.90;;;;;;4955885;28;20023;-75
2023/06/06 09:56:20;;;;;;;18.70;8.65;;;21.00;99.90;;;;;;4958273;28;20364;-74
2023/06/06 09:58:46;;;;;;;15.65;8.30;;;21.10;99.90;;;;;;4957248;28;20027;-75
2023/06/06 10:01:13;;;;;;;22.67;8.68;;;21.40;99.90;;;;;;4956945;28;20085;-74
2023/06/06 10:03:40;;;;;;;19.17;8.63;;;21.50;99.90;;;;;;4954758;28;20091;-75
2023/06/06 10:06:07;;;;;;;18.77;8.60;;;21.60;99.90;;;;;;4953677;29;20027;-74
2023/06/06 10:08:34;;;;;;;17.58;8.40;;;21.80;99.90;;;;;;4950966;28;20031;-74
2023/06/06 10:11:02;;;;;;;16.67;8.40;;;21.90;99.90;;;;;;4947673;29;20085;-75
2023/06/06 10:13:28;;;;;;;26.58;9.15;;;22.10;99.90;;;;;;4953479;28;20486;-75
2023/06/06 10:15:57;;;;;;;24.30;8.55;;;22.20;99.90;;;;;;4943920;29;20078;-75
2023/06/06 10:18:23;;;;;;;16.45;8.68;;;22.20;99.90;;;;;;4948523;28;20065;-73
2023/06/06 10:20:51;;;;;;;17.92;9.13;;;22.20;99.90;;;;;;4952856;28;20047;-73
2023/06/06 10:23:17;;;;;;;17.95;8.43;;;22.20;99.90;;;;;;4944352;29;20030;-73
2023/06/06 10:25:44;;;;;;;15.32;8.18;;;22.20;99.90;;;;;;4956971;28;20114;-73
2023/06/06 10:28:15;;;;;;;16.08;7.85;;;22.40;99.90;;;;;;4946205;29;20034;-73
2023/06/06 10:30:44;;;;;;;15.40;8.05;;;22.50;99.90;;;;;;4951763;29;20106;-73
2023/06/06 10:33:57;;;;;;;15.52;8.55;;;22.50;99.90;;;;;;4955421;28;20019;-72
2023/06/06 10:36:23;;;;;;;39.08;9.82;;;22.40;99.90;;;;;;4974133;28;20031;-72
2023/06/06 10:39:21;;;;;;;25.75;8.35;;;22.40;99.90;;;;;;4960247;28;20113;-72
2023/06/06 10:42:17;;;;;;;26.40;8.25;;;22.60;99.90;;;;;;4954666;29;20055;-74
2023/06/06 10:44:46;;;;;;;16.33;6.75;;;22.80;99.90;;;;;;4956257;28;20547;-74
2023/06/06 10:47:21;;;;;;;17.70;7.60;;;23.00;99.90;;;;;;4956235;29;20023;-73
2023/06/06 10:50:11;;;;;;;21.88;8.35;;;23.20;99.50;;;;;;4951738;29;20078;-74
2023/06/06 10:52:49;;;;;;;13.65;8.05;;;23.30;98.50;;;;;;4948424;29;20027;-73
2023/06/06 10:55:24;;;;;;;18.70;8.75;;;23.30;98.30;;;;;;4946665;29;20035;-75
2023/06/06 10:58:02;;;;;;;;;;;23.10;97.70;;;;;;4944427;28;20058;-74
2023/06/06 11:00:32;;;;;;;13.70;7.32;;;22.80;98.00;;;;;;4949984;29;19906;-75
2023/06/06 11:03:03;;;;;;;16.48;8.27;;;22.80;98.60;;;;;;4956073;28;20015;-74
2023/06/06 11:05:29;;;;;;;14.60;7.82;;;22.90;98.20;;;;;;4947568;28;20030;-74
2023/06/06 11:07:59;;;;;;;23.38;7.65;;;22.90;97.40;;;;;;4953126;29;20426;-74
2023/06/06 11:10:25;;;;;;;15.23;6.95;;;23.00;97.20;;;;;;4951392;28;20582;-74
2023/06/06 11:12:50;;;;;;;16.02;7.20;;;23.10;97.10;;;;;;4960265;28;20019;-74
2023/06/06 11:15:32;;;;;;;18.05;7.32;;;23.40;96.70;;;;;;4958281;28;20062;-74
2023/06/06 11:18:04;;;;;;;34.85;10.02;;;23.50;95.70;;;;;;4947902;28;20027;-74
2023/06/06 11:20:40;;;;;;;17.23;7.20;;;23.50;95.50;;;;;;4951482;29;20035;-74
2023/06/06 11:23:06;;;;;;;17.58;8.10;;;23.50;95.30;;;;;;4950640;28;20074;-74
2023/06/06 11:25:35;;;;;;;33.35;9.15;;;23.60;95.30;;;;;;4947163;29;20070;-74
2023/06/06 11:28:01;;;;;;;14.50;7.45;;;23.70;94.80;;;;;;4955698;28;20020;-74
2023/06/06 11:30:31;;;;;;;22.05;7.93;;;23.60;94.60;;;;;;4953567;29;20578;-74
2023/06/06 11:33:00;;;;;;;13.48;7.10;;;23.70;94.90;;;;;;4943753;28;20016;-74
2023/06/06 11:35:28;;;;;;;13.18;6.20;;;23.90;94.00;;;;;;4955957;29;20110;-73
2023/06/06 11:37:55;;;;;;;19.35;6.40;;;24.00;93.90;;;;;;4956566;28;20075;-74
2023/06/06 11:40:24;;;;;;;19.92;7.43;;;24.30;93.40;;;;;;4954469;29;20047;-74
2023/06/06 11:42:49;;;;;;;18.50;8.77;;;24.40;92.40;;;;;;4955695;28;20065;-74
2023/06/06 11:45:16;;;;;;;16.77;8.25;;;24.30;92.30;;;;;;4955731;29;20073;-74
2023/06/06 11:47:46;;;;;;;13.50;8.10;;;24.10;92.80;;;;;;4953831;28;20533;-74
2023/06/06 11:50:13;;;;;;;16.88;8.27;;;24.20;93.00;;;;;;4953226;29;20077;-74
2023/06/06 11:52:48;;;;;;;22.17;8.50;;;24.30;92.70;;;;;;4955090;29;20525;-74
2023/06/06 11:55:15;;;;;;;19.00;8.10;;;24.40;92.10;;;;;;4954852;28;20411;-74
2023/06/06 11:57:41;;;;;;;14.40;7.18;;;24.30;91.90;;;;;;4954361;28;20024;-75
2023/06/06 12:00:17;;;;;;;14.02;7.30;;;24.20;92.20;;;;;;4956377;28;20031;-74
2023/06/06 12:02:48;;;;;;;12.02;5.88;;;24.20;91.20;;;;;;4957344;28;20438;-74
2023/06/06 12:05:22;;;;;;;13.38;6.55;;;24.20;91.50;;;;;;4954894;28;20031;-74
2023/06/06 12:07:59;;;;;;;16.88;7.28;;;24.30;91.50;;;;;;4955889;28;20355;-74
2023/06/06 12:10:29;;;;;;;18.33;8.40;;;24.50;91.50;;;;;;4939838;29;20847;-74
2023/06/06 12:12:55;;;;;;;17.17;7.72;;;24.60;90.90;;;;;;4949886;28;20038;-73
2023/06/06 12:15:22;;;;;;;13.48;7.10;;;24.60;90.90;;;;;;4953524;29;20051;-74
2023/06/06 12:17:48;;;;;;;11.77;6.60;;;24.70;90.90;;;;;;4951232;28;20339;-74
2023/06/06 12:20:24;;;;;;;14.20;7.47;;;24.70;90.80;;;;;;4954529;29;20082;-74
2023/06/06 12:22:53;;;;;;;12.50;6.20;;;24.70;90.80;;;;;;4952798;29;20035;-74
2023/06/06 12:25:26;;;;;;;13.98;6.60;;;24.70;91.00;;;;;;4955142;28;20071;-74
2023/06/06 12:27:53;;;;;;;13.18;7.47;;;24.90;90.00;;;;;;4954069;29;20490;-73
2023/06/06 12:30:32;;;;;;;12.38;7.68;;;25.00;90.00;;;;;;4947536;28;20059;-77
2023/06/06 12:33:02;;;;;;;14.43;7.32;;;24.90;88.10;;;;;;4953807;28;20391;-73
2023/06/06 12:35:28;;;;;;;10.65;6.57;;;24.70;88.80;;;;;;4947845;28;20362;-73
2023/06/06 12:37:55;;;;;;;12.98;7.10;;;24.60;90.50;;;;;;4948989;28;20019;-76
2023/06/06 12:40:35;;;;;;;19.92;11.68;;;24.70;89.80;;;;;;4947017;28;20299;-75
2023/06/06 12:43:06;;;;;;;14.77;8.35;;;24.80;88.90;;;;;;4941895;28;20679;-76